Terminal Aerodrome Forecast
Issued by NWS

Home | Current Version | Previous Version | Text Only | Print | Product List | Glossary On
Versions: 1 2 3 4 5 6 7 8 9 10 11 12 13 14 15 16 17 18 19 20 21 22 23 24 25 26
000
FTUS41 KRNK 191722
TAFLWB
TAF
KLWB 191722Z 1918/2018 26005KT P6SM SCT040
     FM200800 00000KT 1SM BR SCT003
     FM200930 00000KT 1/4SM FG SCT001
     FM201200 00000KT 1SM BR FEW010
     FM201330 VRB03KT P6SM FEW025=

USA.gov is the U.S. government's official web portal to all federal, state and local government web resources and services.